Time;durP1;ratioP1;P1;durP2;ratioP2;P2;SDS_P1;SDS_P2;PMS_P1;PMS_P2;Temp;Humidity;BMP_temperature;BMP_pressure;BME280_temperature;BME280_humidity;BME280_pressure;Samples;Min_cycle;Max_cycle;Signal;HPM_P1;HPM_P2
2022/08/07 00:00:36;;;;;;;0.00;0.00;;;;;;;12.02;89.88;102624.56;4967880;28;20031;-70
2022/08/07 00:03:02;;;;;;;0.00;0.00;;;;;;;11.95;90.01;102624.88;4963756;28;20027;-70
2022/08/07 00:05:27;;;;;;;0.00;0.00;;;;;;;11.80;89.88;102610.44;4962688;28;20035;-69
2022/08/07 00:07:53;;;;;;;0.00;0.00;;;;;;;11.81;89.69;102622.94;4965203;28;20023;-69
2022/08/07 00:10:19;;;;;;;0.00;0.00;;;;;;;11.79;89.97;102615.88;4963462;28;20049;-69
2022/08/07 00:12:44;;;;;;;0.00;0.00;;;;;;;11.81;89.93;102614.88;4964376;28;20486;-69
2022/08/07 00:15:10;;;;;;;0.00;0.00;;;;;;;11.82;90.05;102618.41;4963622;28;20113;-69
2022/08/07 00:17:35;;;;;;;0.00;0.00;;;;;;;11.72;90.25;102591.13;4964656;28;20753;-69
2022/08/07 00:20:00;;;;;;;0.00;0.00;;;;;;;11.65;90.02;102587.06;4962083;28;20062;-69
2022/08/07 00:22:26;;;;;;;0.00;0.00;;;;;;;11.76;89.42;102613.38;4962480;28;20802;-69
2022/08/07 00:24:51;;;;;;;0.00;0.00;;;;;;;11.68;89.48;102609.28;4964012;28;20473;-69
2022/08/07 00:27:16;;;;;;;0.00;0.00;;;;;;;11.64;89.56;102605.00;4969503;28;20097;-69
2022/08/07 00:29:42;;;;;;;0.00;0.00;;;;;;;11.64;89.95;102606.84;4972325;28;20126;-69
2022/08/07 00:32:08;;;;;;;0.00;0.00;;;;;;;11.55;89.78;102603.69;4969801;28;20026;-69
2022/08/07 00:34:33;;;;;;;0.00;0.00;;;;;;;11.51;90.00;102591.38;4969083;28;20054;-69
2022/08/07 00:36:59;;;;;;;0.00;0.00;;;;;;;11.40;90.41;102582.97;4971276;28;20034;-69
2022/08/07 00:39:24;;;;;;;0.00;0.00;;;;;;;11.41;90.15;102600.88;4968535;28;20055;-69
2022/08/07 00:41:54;;;;;;;0.00;0.00;;;;;;;11.37;90.52;102593.94;4970117;28;20031;-69
2022/08/07 00:44:19;;;;;;;0.00;0.00;;;;;;;11.28;90.70;102575.59;4969936;28;20050;-69
2022/08/07 00:46:45;;;;;;;0.00;0.00;;;;;;;11.38;90.93;102579.53;4969702;28;20078;-69
2022/08/07 00:49:10;;;;;;;0.00;0.00;;;;;;;11.39;90.97;102584.81;4968815;28;20097;-69
2022/08/07 00:51:36;;;;;;;0.00;0.00;;;;;;;11.38;90.69;102585.78;4969843;28;20121;-69
2022/08/07 00:54:01;;;;;;;0.10;0.10;;;;;;;11.31;90.30;102578.13;4973546;28;20034;-68
2022/08/07 00:56:28;;;;;;;0.00;0.00;;;;;;;11.29;90.70;102582.72;4969855;28;22424;-67
2022/08/07 00:58:54;;;;;;;0.00;0.00;;;;;;;11.24;90.56;102580.28;4964361;28;20081;-69
2022/08/07 01:01:19;;;;;;;0.00;0.00;;;;;;;11.14;90.77;102577.16;4963730;28;20122;-69
2022/08/07 01:03:45;;;;;;;0.10;0.10;;;;;;;10.95;91.91;102582.66;4951231;28;20031;-69
2022/08/07 01:06:11;;;;;;;0.00;0.00;;;;;;;10.88;92.15;102578.53;4967860;28;20089;-69
2022/08/07 01:08:36;;;;;;;0.05;0.05;;;;;;;10.89;92.27;102580.28;4966481;28;22565;-69
2022/08/07 01:11:02;;;;;;;0.00;0.00;;;;;;;10.84;92.86;102580.53;4956915;28;20038;-69
2022/08/07 01:13:27;;;;;;;0.00;0.00;;;;;;;10.78;92.77;102578.16;4968124;28;20485;-69
2022/08/07 01:15:54;;;;;;;0.00;0.00;;;;;;;10.71;93.17;102579.41;4965335;28;20031;-69
2022/08/07 01:18:19;;;;;;;0.00;0.00;;;;;;;10.65;94.04;102575.22;4967810;28;20022;-68
2022/08/07 01:20:52;;;;;;;0.10;0.10;;;;;;;10.65;94.28;102567.16;4968359;28;20035;-67
2022/08/07 01:23:18;;;;;;;0.00;0.00;;;;;;;10.65;93.84;102565.31;4964486;28;20033;-67
2022/08/07 01:25:43;;;;;;;0.00;0.00;;;;;;;10.61;93.64;102566.41;4962639;28;20035;-67
2022/08/07 01:28:09;;;;;;;0.00;0.00;;;;;;;10.58;93.63;102571.09;4967621;28;20578;-68
2022/08/07 01:30:35;;;;;;;0.00;0.00;;;;;;;10.57;93.85;102570.25;4966481;28;20058;-68
2022/08/07 01:33:01;;;;;;;0.00;0.00;;;;;;;10.57;93.37;102566.66;4964396;28;20170;-68
2022/08/07 01:35:26;;;;;;;0.00;0.00;;;;;;;10.56;93.50;102565.81;4961571;28;20035;-67
2022/08/07 01:37:51;;;;;;;0.00;0.00;;;;;;;10.57;93.28;102555.91;4963878;28;20035;-68
2022/08/07 01:40:20;;;;;;;0.00;0.00;;;;;;;10.60;94.54;102556.63;4964532;28;20058;-68
2022/08/07 01:42:46;;;;;;;0.00;0.00;;;;;;;10.63;93.94;102558.31;4963670;28;20027;-68
2022/08/07 01:45:11;;;;;;;0.00;0.00;;;;;;;10.59;93.11;102556.72;4965771;28;20111;-68
2022/08/07 01:47:37;;;;;;;0.00;0.00;;;;;;;10.39;93.18;102522.81;4964654;28;20043;-68
2022/08/07 01:50:04;;;;;;;0.05;0.05;;;;;;;10.50;92.77;102547.31;4964126;28;20022;-68
2022/08/07 01:52:30;;;;;;;0.00;0.00;;;;;;;10.49;93.27;102559.00;4964264;28;20041;-68
2022/08/07 01:54:56;;;;;;;0.00;0.00;;;;;;;10.47;92.97;102555.53;4965352;28;20033;-68
2022/08/07 01:57:25;;;;;;;0.00;0.00;;;;;;;10.43;92.86;102560.19;4967355;28;20034;-68
2022/08/07 01:59:55;;;;;;;0.10;0.10;;;;;;;10.42;93.06;102555.75;4959066;28;20413;-68
2022/08/07 02:02:29;;;;;;;0.00;0.00;;;;;;;10.17;93.33;102519.34;4963894;28;20077;-68
2022/08/07 02:04:58;;;;;;;0.00;0.00;;;;;;;10.44;93.65;102553.88;4959431;28;20031;-68
2022/08/07 02:07:28;;;;;;;0.00;0.00;;;;;;;10.36;92.99;102542.59;4957300;28;20039;-68
2022/08/07 02:09:54;;;;;;;0.00;0.00;;;;;;;10.42;93.61;102550.38;4964994;28;20034;-68
2022/08/07 02:12:20;;;;;;;0.00;0.00;;;;;;;10.39;93.37;102549.66;4963198;28;20058;-68
2022/08/07 02:14:49;;;;;;;0.00;0.00;;;;;;;10.34;93.33;102547.16;4959896;28;20038;-68
2022/08/07 02:17:14;;;;;;;0.00;0.00;;;;;;;10.30;93.21;102557.22;4962531;28;20027;-68
2022/08/07 02:19:42;;;;;;;0.10;0.10;;;;;;;10.26;93.54;102550.25;4964400;28;20458;-68
2022/08/07 02:22:10;;;;;;;0.00;0.00;;;;;;;10.22;93.24;102548.66;4958255;28;20495;-68
2022/08/07 02:24:36;;;;;;;0.00;0.00;;;;;;;10.19;93.88;102546.13;4960633;28;20116;-68
2022/08/07 02:27:01;;;;;;;0.00;0.00;;;;;;;10.15;93.84;102544.50;4967457;28;20039;-68
2022/08/07 02:29:27;;;;;;;0.00;0.00;;;;;;;10.11;93.81;102541.13;4963225;28;20026;-68
2022/08/07 02:31:53;;;;;;;0.10;0.10;;;;;;;10.06;94.11;102538.66;4965601;28;20601;-68
2022/08/07 02:34:18;;;;;;;0.00;0.00;;;;;;;10.01;94.41;102539.81;4960046;28;20456;-68
2022/08/07 02:36:44;;;;;;;0.00;0.00;;;;;;;9.99;95.01;102539.03;4963118;28;20055;-69
2022/08/07 02:39:10;;;;;;;0.00;0.00;;;;;;;9.98;95.61;102534.59;4962319;28;20378;-69
2022/08/07 02:41:36;;;;;;;0.00;0.00;;;;;;;9.99;95.27;102534.53;4960730;28;20026;-68
2022/08/07 02:44:02;;;;;;;0.10;0.10;;;;;;;9.99;94.98;102534.53;4962701;28;20027;-68
2022/08/07 02:46:29;;;;;;;0.00;0.00;;;;;;;9.96;94.69;102532.00;4963085;28;20027;-68
2022/08/07 02:48:55;;;;;;;0.00;0.00;;;;;;;9.92;95.56;102527.72;4961501;28;20031;-68
2022/08/07 02:51:21;;;;;;;0.00;0.00;;;;;;;9.92;95.52;102532.22;4962156;28;20398;-68
2022/08/07 02:53:52;;;;;;;0.00;0.00;;;;;;;9.86;95.92;102530.69;4960961;28;20034;-68
2022/08/07 02:56:20;;;;;;;0.00;0.00;;;;;;;9.68;96.65;102498.44;4959722;28;20042;-68
2022/08/07 02:58:45;;;;;;;0.00;0.00;;;;;;;9.80;95.94;102526.50;4962538;28;20041;-68
2022/08/07 03:01:11;;;;;;;0.10;0.10;;;;;;;9.78;95.70;102541.78;4961143;28;20070;-68
2022/08/07 03:03:37;;;;;;;0.00;0.00;;;;;;;9.75;95.77;102534.78;4965957;28;20057;-68
2022/08/07 03:06:03;;;;;;;0.00;0.00;;;;;;;9.75;95.51;102534.78;4963847;28;20022;-67
2022/08/07 03:08:29;;;;;;;0.00;0.00;;;;;;;9.74;95.60;102530.34;4965488;28;20065;-68
2022/08/07 03:10:55;;;;;;;0.00;0.00;;;;;;;9.73;94.69;102538.44;4963427;28;20117;-69
2022/08/07 03:13:20;;;;;;;0.00;0.00;;;;;;;9.73;95.90;102531.28;4962631;28;20062;-69
2022/08/07 03:15:48;;;;;;;0.00;0.00;;;;;;;9.73;96.21;102538.44;4966475;28;20510;-69
2022/08/07 03:18:15;;;;;;;0.00;0.00;;;;;;;9.73;96.47;102531.28;4965530;28;20039;-69
2022/08/07 03:20:40;;;;;;;0.00;0.00;;;;;;;9.78;96.99;102533.75;4962907;28;20069;-69
2022/08/07 03:23:07;;;;;;;0.00;0.00;;;;;;;9.84;96.60;102535.25;4965252;28;20139;-69
2022/08/07 03:25:34;;;;;;;0.00;0.00;;;;;;;9.82;95.26;102537.16;4962103;28;20701;-69
2022/08/07 03:28:00;;;;;;;0.00;0.00;;;;;;;9.78;95.51;102530.22;4962922;28;20041;-69
2022/08/07 03:30:26;;;;;;;0.00;0.00;;;;;;;9.51;95.77;102484.97;4960422;28;20027;-69
2022/08/07 03:32:52;;;;;;;0.00;0.00;;;;;;;9.81;95.80;102535.41;4967450;28;20023;-69
2022/08/07 03:35:22;;;;;;;0.00;0.00;;;;;;;9.80;95.91;102525.66;4960955;28;20031;-69
2022/08/07 03:37:53;;;;;;;0.00;0.00;;;;;;;9.76;95.04;102519.53;4964957;28;20033;-69
2022/08/07 03:40:19;;;;;;;0.10;0.10;;;;;;;9.75;95.49;102517.78;4964214;28;20041;-69
2022/08/07 03:42:45;;;;;;;0.00;0.00;;;;;;;9.74;94.92;102524.09;4966066;28;20034;-67
2022/08/07 03:45:10;;;;;;;0.10;0.10;;;;;;;9.69;94.56;102526.13;4966787;28;20035;-67
2022/08/07 03:47:36;;;;;;;0.10;0.10;;;;;;;9.67;94.73;102531.56;4960099;28;20077;-67
2022/08/07 03:50:02;;;;;;;0.00;0.00;;;;;;;9.43;94.85;102507.66;4967760;28;20069;-67
2022/08/07 03:52:28;;;;;;;0.00;0.00;;;;;;;9.44;95.76;102536.19;4964204;28;20034;-67
2022/08/07 03:54:56;;;;;;;0.00;0.00;;;;;;;9.40;96.87;102526.56;4959566;28;20037;-67
2022/08/07 03:57:24;;;;;;;0.00;0.00;;;;;;;9.42;97.19;102540.75;4963539;28;20026;-67
2022/08/07 03:59:49;;;;;;;0.00;0.00;;;;;;;9.47;96.86;102542.38;4965609;28;20030;-67
2022/08/07 04:02:15;;;;;;;0.00;0.00;;;;;;;9.45;96.32;102545.97;4972019;28;20026;-67
2022/08/07 04:04:41;;;;;;;0.10;0.10;;;;;;;9.48;96.22;102536.91;4971496;28;20134;-68
2022/08/07 04:07:07;;;;;;;0.00;0.00;;;;;;;9.49;95.96;102543.16;4967672;28;20050;-67
2022/08/07 04:09:34;;;;;;;0.00;0.00;;;;;;;9.43;95.38;102537.13;4968877;28;20054;-67
2022/08/07 04:11:59;;;;;;;0.00;0.00;;;;;;;9.43;95.77;102537.13;4966251;28;20026;-67
2022/08/07 04:14:25;;;;;;;0.00;0.00;;;;;;;9.42;96.18;102537.19;4961150;28;20033;-67
2022/08/07 04:16:50;;;;;;;0.10;0.10;;;;;;;9.39;96.46;102545.41;4972130;28;20844;-67
2022/08/07 04:19:16;;;;;;;0.00;0.00;;;;;;;9.36;96.69;102538.34;4969570;28;20035;-68
2022/08/07 04:21:41;;;;;;;0.00;0.00;;;;;;;9.40;97.00;102544.47;4964348;28;20065;-68
2022/08/07 04:24:09;;;;;;;0.00;0.00;;;;;;;9.38;96.60;102544.50;4970364;28;20470;-67
2022/08/07 04:26:35;;;;;;;0.00;0.00;;;;;;;9.36;96.47;102550.91;4969670;28;20042;-67
2022/08/07 04:29:01;;;;;;;0.00;0.00;;;;;;;9.30;97.10;102555.59;4970292;28;20030;-67
2022/08/07 04:31:26;;;;;;;0.10;0.10;;;;;;;9.24;97.53;102552.31;4971991;28;20374;-67
2022/08/07 04:33:52;;;;;;;0.05;0.05;;;;;;;9.23;97.85;102547.91;4961920;28;20026;-67
2022/08/07 04:36:17;;;;;;;0.00;0.00;;;;;;;9.27;98.01;102550.38;4967669;28;20022;-67
2022/08/07 04:38:43;;;;;;;0.00;0.00;;;;;;;9.39;98.53;102556.13;4969565;28;20494;-68
2022/08/07 04:41:09;;;;;;;0.03;0.03;;;;;;;9.47;99.01;102555.78;4966605;28;20106;-67
2022/08/07 04:43:36;;;;;;;0.10;0.10;;;;;;;9.52;98.29;102551.06;4971807;28;20114;-67
2022/08/07 04:46:10;;;;;;;0.20;0.10;;;;;;;9.51;96.96;102555.53;4968161;28;20035;-67
2022/08/07 04:48:51;;;;;;;0.00;0.00;;;;;;;9.57;97.12;102557.94;4971845;28;20037;-67
2022/08/07 04:51:29;;;;;;;0.00;0.00;;;;;;;9.66;97.17;102561.16;4969184;28;20105;-67
2022/08/07 04:54:02;;;;;;;0.00;0.00;;;;;;;9.74;97.37;102565.22;4968275;28;20043;-68
2022/08/07 04:56:36;;;;;;;0.00;0.00;;;;;;;9.81;96.96;102564.91;4962763;28;20030;-68
2022/08/07 04:59:14;;;;;;;0.00;0.00;;;;;;;9.75;96.86;102558.91;4966683;28;20023;-68
2022/08/07 05:01:46;;;;;;;0.00;0.00;;;;;;;9.80;96.50;102564.06;4961221;28;20057;-68
2022/08/07 05:04:31;;;;;;;0.00;0.00;;;;;;;9.84;96.81;102568.34;4964909;28;20030;-67
2022/08/07 05:07:16;;;;;;;0.00;0.00;;;;;;;9.69;96.97;102532.38;4961120;28;20031;-68
2022/08/07 05:09:55;;;;;;;0.00;0.00;;;;;;;9.97;97.28;102567.75;4958866;28;20045;-68
2022/08/07 05:12:47;;;;;;;0.10;0.10;;;;;;;10.02;97.62;102577.34;4963881;28;20062;-68
2022/08/07 05:15:20;;;;;;;0.00;0.00;;;;;;;10.10;98.10;102565.34;4963819;28;20499;-68
2022/08/07 05:17:47;;;;;;;0.00;0.00;;;;;;;10.16;98.13;102565.03;4967852;28;20034;-67
2022/08/07 05:20:22;;;;;;;0.00;0.00;;;;;;;10.27;98.11;102569.88;4971266;28;20034;-68
2022/08/07 05:22:49;;;;;;;0.10;0.10;;;;;;;10.42;98.23;102574.56;4963518;28;20388;-68
2022/08/07 05:25:17;;;;;;;0.00;0.00;;;;;;;10.57;98.25;102574.72;4960275;28;20022;-68
2022/08/07 05:27:45;;;;;;;0.00;0.00;;;;;;;10.44;97.72;102540.44;4961294;28;20058;-67
2022/08/07 05:30:10;;;;;;;0.00;0.00;;;;;;;10.73;97.76;102582.88;4964561;28;20162;-67
2022/08/07 05:32:37;;;;;;;0.00;0.00;;;;;;;10.74;97.81;102560.44;4966837;28;20038;-68
2022/08/07 05:35:03;;;;;;;0.03;0.03;;;;;;;11.01;97.75;102586.84;4958487;28;20027;-67
2022/08/07 05:37:28;;;;;;;0.05;0.05;;;;;;;11.14;98.02;102584.38;4966761;28;20045;-68
2022/08/07 05:39:54;;;;;;;0.00;0.00;;;;;;;11.30;97.81;102584.44;4965942;28;20038;-68
2022/08/07 05:42:20;;;;;;;0.00;0.00;;;;;;;11.46;97.91;102582.66;4968037;28;20329;-67
2022/08/07 05:44:45;;;;;;;0.00;0.00;;;;;;;11.64;97.66;102579.94;4960944;28;20034;-67
2022/08/07 05:47:11;;;;;;;0.00;0.00;;;;;;;11.83;96.89;102582.47;4965369;28;20035;-67
2022/08/07 05:49:36;;;;;;;0.00;0.00;;;;;;;12.03;96.23;102583.25;4967399;28;20034;-67
2022/08/07 05:52:03;;;;;;;0.10;0.10;;;;;;;12.23;95.37;102585.66;4963647;28;20038;-67
2022/08/07 05:54:28;;;;;;;0.00;0.00;;;;;;;12.44;94.61;102586.25;4965113;28;20474;-68
2022/08/07 05:56:55;;;;;;;0.00;0.00;;;;;;;12.65;94.04;102588.66;4964835;28;20076;-67
2022/08/07 05:59:21;;;;;;;0.00;0.00;;;;;;;12.76;94.51;102577.22;4966445;28;20038;-68
2022/08/07 06:01:48;;;;;;;0.00;0.00;;;;;;;12.95;94.67;102582.41;4966428;28;20474;-68
2022/08/07 06:04:14;;;;;;;0.05;0.05;;;;;;;13.11;94.54;102584.16;4964818;28;20034;-67
2022/08/07 06:06:39;;;;;;;0.00;0.00;;;;;;;13.25;95.51;102588.69;4965064;28;20043;-67
2022/08/07 06:09:05;;;;;;;0.00;0.00;;;;;;;13.39;94.67;102588.69;4965052;28;20058;-68
2022/08/07 06:11:31;;;;;;;0.00;0.00;;;;;;;13.57;94.12;102588.56;4964693;28;20039;-68
2022/08/07 06:13:57;;;;;;;0.00;0.00;;;;;;;13.78;92.87;102586.31;4962901;28;20109;-68
2022/08/07 06:16:26;;;;;;;0.00;0.00;;;;;;;13.98;92.61;102597.69;4960476;28;20026;-68
2022/08/07 06:18:51;;;;;;;0.00;0.00;;;;;;;14.17;92.44;102597.38;4968901;28;20035;-68
2022/08/07 06:21:17;;;;;;;0.00;0.00;;;;;;;14.34;90.69;102594.44;4963840;28;20042;-68
2022/08/07 06:23:43;;;;;;;0.10;0.10;;;;;;;14.53;89.31;102596.78;4963441;28;20031;-68
2022/08/07 06:26:12;;;;;;;0.00;0.00;;;;;;;14.61;89.61;102582.75;4966493;28;20057;-69
2022/08/07 06:28:47;;;;;;;0.00;0.00;;;;;;;14.90;87.54;102593.44;4963204;28;20613;-69
2022/08/07 06:31:13;;;;;;;0.05;0.05;;;;;;;15.07;85.80;102597.69;4963518;28;20030;-69
2022/08/07 06:33:38;;;;;;;0.00;0.00;;;;;;;15.22;85.21;102598.47;4965766;28;20031;-69
2022/08/07 06:36:04;;;;;;;0.00;0.00;;;;;;;15.24;85.08;102576.72;4959717;28;20051;-70
2022/08/07 06:38:29;;;;;;;0.00;0.00;;;;;;;15.45;83.90;102593.28;4962184;28;20030;-69
2022/08/07 06:40:55;;;;;;;0.00;0.00;;;;;;;15.61;84.60;102590.34;4961698;28;20477;-69
2022/08/07 06:43:22;;;;;;;0.00;0.00;;;;;;;15.78;84.36;102589.09;4962387;28;20070;-70
2022/08/07 06:45:48;;;;;;;0.05;0.05;;;;;;;15.89;82.40;102588.38;4964745;28;20074;-69
2022/08/07 06:48:13;;;;;;;0.00;0.00;;;;;;;16.05;82.86;102582.69;4964776;28;20434;-70
2022/08/07 06:50:40;;;;;;;0.00;0.00;;;;;;;16.18;82.55;102577.22;4964919;28;20031;-70
2022/08/07 06:53:07;;;;;;;0.00;0.00;;;;;;;16.29;82.50;102574.59;4962511;28;20037;-67
2022/08/07 06:55:33;;;;;;;0.00;0.00;;;;;;;16.43;82.06;102572.66;4959553;28;20027;-67
2022/08/07 06:58:02;;;;;;;0.00;0.00;;;;;;;16.53;79.53;102567.44;4960154;28;20122;-68
2022/08/07 07:00:31;;;;;;;0.00;0.00;;;;;;;16.63;79.63;102571.16;4961487;28;20126;-68
2022/08/07 07:02:57;;;;;;;0.00;0.00;;;;;;;16.73;79.55;102568.59;4966462;28;20487;-67
2022/08/07 07:05:22;;;;;;;0.00;0.00;;;;;;;16.88;78.31;102567.44;4963094;28;20033;-68
2022/08/07 07:07:48;;;;;;;0.00;0.00;;;;;;;17.01;78.48;102561.97;4964001;28;20065;-68
2022/08/07 07:10:13;;;;;;;0.00;0.00;;;;;;;17.17;77.42;102563.44;4960190;28;20518;-68
2022/08/07 07:12:43;;;;;;;0.00;0.00;;;;;;;17.18;78.20;102555.22;4959186;28;20035;-68
2022/08/07 07:15:29;;;;;;;0.00;0.00;;;;;;;17.42;76.72;102572.34;4959862;28;20027;-67
2022/08/07 07:18:14;;;;;;;0.00;0.00;;;;;;;17.62;75.34;102574.34;4962137;28;20038;-67
2022/08/07 07:20:44;;;;;;;0.00;0.00;;;;;;;17.72;73.64;102574.47;4955993;28;20042;-68
2022/08/07 07:23:10;;;;;;;0.00;0.00;;;;;;;17.88;73.40;102570.50;4966820;28;20049;-67
2022/08/07 07:25:38;;;;;;;0.00;0.00;;;;;;;17.89;71.22;102574.94;4956627;28;20348;-67
2022/08/07 07:28:11;;;;;;;0.00;0.00;;;;;;;17.95;72.23;102571.72;4955649;28;20041;-67
2022/08/07 07:30:39;;;;;;;0.00;0.00;;;;;;;18.01;71.43;102570.38;4960060;28;20033;-67
2022/08/07 07:33:05;;;;;;;0.00;0.00;;;;;;;17.98;73.02;102564.22;4960266;28;20497;-67
2022/08/07 07:35:32;;;;;;;0.00;0.00;;;;;;;18.08;73.01;102569.75;4961576;28;20037;-70
2022/08/07 07:37:59;;;;;;;0.00;0.00;;;;;;;18.23;72.32;102564.03;4963730;28;20023;-70
2022/08/07 07:40:25;;;;;;;0.00;0.00;;;;;;;18.39;71.30;102561.75;4959533;28;20035;-70
2022/08/07 07:42:53;;;;;;;0.00;0.00;;;;;;;18.60;70.02;102563.63;4951372;28;20118;-70
2022/08/07 07:45:20;;;;;;;0.00;0.00;;;;;;;18.74;70.76;102549.75;4965057;28;20031;-70
2022/08/07 07:47:46;;;;;;;0.00;0.00;;;;;;;18.94;70.16;102557.16;4964127;28;20042;-70
2022/08/07 07:50:13;;;;;;;0.00;0.00;;;;;;;19.09;69.70;102550.41;4963709;28;20023;-70
2022/08/07 07:52:40;;;;;;;0.00;0.00;;;;;;;19.22;68.67;102549.31;4961491;28;20448;-69
2022/08/07 07:55:06;;;;;;;0.00;0.00;;;;;;;19.25;68.45;102549.94;4962038;28;20058;-67
2022/08/07 07:57:32;;;;;;;0.00;0.00;;;;;;;19.41;68.10;102545.84;4961347;28;20025;-69
2022/08/07 07:59:59;;;;;;;0.00;0.00;;;;;;;19.26;62.73;102545.34;4962345;28;20386;-69
2022/08/07 08:02:26;;;;;;;0.00;0.00;;;;;;;19.48;64.77;102542.44;4961634;28;20026;-72
2022/08/07 08:04:53;;;;;;;0.00;0.00;;;;;;;19.60;65.37;102548.63;4958076;28;20023;-69
2022/08/07 08:07:18;;;;;;;0.00;0.00;;;;;;;19.69;64.64;102555.16;4962896;28;20751;-68
2022/08/07 08:09:44;;;;;;;0.00;0.00;;;;;;;19.83;65.50;102551.19;4964227;28;20042;-67
2022/08/07 08:12:09;;;;;;;0.00;0.00;;;;;;;19.91;65.13;102550.50;4964806;28;20034;-68
2022/08/07 08:14:35;;;;;;;0.00;0.00;;;;;;;20.07;63.73;102545.38;4962599;28;20109;-68
2022/08/07 08:17:02;;;;;;;0.00;0.00;;;;;;;20.18;62.44;102549.81;4957737;28;20038;-68
2022/08/07 08:19:29;;;;;;;0.00;0.00;;;;;;;20.25;62.91;102558.31;4960453;28;20027;-71
2022/08/07 08:27:30;;;;;;;0.00;0.00;;;;;;;20.53;62.56;102542.06;4959981;28;20435;-67
2022/08/07 08:29:59;;;;;;;0.00;0.00;;;;;;;20.59;61.59;102551.56;4962997;28;20023;-68
2022/08/07 08:32:26;;;;;;;0.00;0.00;;;;;;;20.65;61.52;102546.41;4960052;28;20026;-67
2022/08/07 08:34:52;;;;;;;0.00;0.00;;;;;;;20.76;61.85;102552.72;4964255;28;20026;-67
2022/08/07 08:37:19;;;;;;;0.00;0.00;;;;;;;20.87;60.70;102549.00;4956143;28;20027;-67
2022/08/07 08:39:47;;;;;;;0.00;0.00;;;;;;;20.91;60.78;102551.28;4965050;28;20035;-69
2022/08/07 08:42:21;;;;;;;0.00;0.00;;;;;;;21.04;58.80;102555.56;4959095;28;20027;-68
2022/08/07 08:45:10;;;;;;;0.00;0.00;;;;;;;21.08;58.79;102551.50;4963016;28;20039;-68
2022/08/07 08:48:05;;;;;;;0.00;0.00;;;;;;;21.16;57.57;102556.25;4964759;28;20108;-69
2022/08/07 08:50:34;;;;;;;0.00;0.00;;;;;;;21.19;57.81;102555.97;4968974;28;20042;-69
2022/08/07 08:53:18;;;;;;;0.00;0.00;;;;;;;21.09;55.38;102547.78;4959329;28;20022;-69
2022/08/07 08:55:49;;;;;;;0.00;0.00;;;;;;;21.03;53.66;102546.50;4960401;28;20114;-68
2022/08/07 08:58:23;;;;;;;0.00;0.00;;;;;;;21.22;54.03;102542.88;4956921;28;20031;-69
2022/08/07 09:00:51;;;;;;;0.00;0.00;;;;;;;21.19;54.63;102543.16;4966229;28;20125;-69
2022/08/07 09:03:29;;;;;;;0.00;0.00;;;;;;;21.19;54.35;102545.88;4970319;28;20026;-68
2022/08/07 09:06:00;;;;;;;0.00;0.00;;;;;;;21.32;53.18;102545.56;4964218;28;20033;-69
2022/08/07 09:08:34;;;;;;;0.00;0.00;;;;;;;21.54;51.81;102543.44;4967237;28;20023;-70
2022/08/07 09:11:18;;;;;;;0.00;0.00;;;;;;;21.70;53.00;102538.25;4970639;28;20126;-70
2022/08/07 09:14:00;;;;;;;0.00;0.00;;;;;;;21.80;52.10;102540.03;4974318;28;20490;-70
2022/08/07 09:16:35;;;;;;;0.00;0.00;;;;;;;21.81;51.17;102539.91;4970363;28;20463;-70
2022/08/07 09:19:20;;;;;;;0.00;0.00;;;;;;;21.71;52.14;102523.56;4969166;28;20058;-70
2022/08/07 09:22:04;;;;;;;0.00;0.00;;;;;;;21.97;51.49;102525.56;4966453;28;20280;-70
2022/08/07 09:24:40;;;;;;;;;;;;;;;22.02;48.14;102531.41;4955378;28;20034;-71
2022/08/07 09:27:43;;;;;;;0.00;0.00;;;;;;;21.92;46.32;102529.75;4963909;28;19956;-70
2022/08/07 09:30:09;;;;;;;0.00;0.00;;;;;;;21.85;49.17;102533.09;4964170;28;20553;-70
2022/08/07 09:32:57;;;;;;;0.00;0.00;;;;;;;22.00;54.10;102529.84;4959090;28;20039;-70
2022/08/07 09:35:47;;;;;;;0.00;0.00;;;;;;;22.19;48.47;102528.84;4954393;28;20446;-70
2022/08/07 09:38:23;;;;;;;0.00;0.00;;;;;;;22.15;47.64;102528.28;4957369;28;20359;-70
2022/08/07 09:41:15;;;;;;;0.00;0.00;;;;;;;22.18;50.61;102527.13;4949163;28;20141;-67
2022/08/07 09:44:02;;;;;;;0.00;0.00;;;;;;;22.48;51.37;102522.31;4956982;28;20034;-67
2022/08/07 09:46:55;;;;;;;0.00;0.00;;;;;;;22.87;46.42;102518.34;4959654;28;20716;-67
2022/08/07 09:49:41;;;;;;;0.00;0.00;;;;;;;22.95;51.68;102512.03;4957316;28;20122;-67
2022/08/07 09:52:20;;;;;;;0.00;0.00;;;;;;;23.07;49.51;102516.22;4956835;28;20547;-68
2022/08/07 09:54:51;;;;;;;0.00;0.00;;;;;;;23.03;51.26;102512.09;4954629;28;20146;-68
2022/08/07 09:57:20;;;;;;;0.00;0.00;;;;;;;22.84;49.77;102505.81;4957093;28;20027;-68
2022/08/07 10:00:04;;;;;;;0.00;0.00;;;;;;;22.87;50.16;102505.50;4956459;28;20085;-68
2022/08/07 10:02:56;;;;;;;0.00;0.00;;;;;;;22.96;47.40;102511.03;4960226;28;20363;-67
2022/08/07 10:05:50;;;;;;;0.00;0.00;;;;;;;22.81;46.63;102502.53;4954506;28;20594;-67
2022/08/07 10:08:36;;;;;;;0.00;0.00;;;;;;;22.94;45.08;102488.41;4955504;28;20383;-67
2022/08/07 10:11:36;;;;;;;0.00;0.00;;;;;;;22.80;46.09;102493.44;4956092;28;20796;-67
2022/08/07 10:14:26;;;;;;;0.00;0.00;;;;;;;23.23;46.12;102492.72;4956801;28;20038;-67
2022/08/07 10:17:28;;;;;;;0.00;0.00;;;;;;;23.57;46.78;102492.69;4958217;28;20334;-67
2022/08/07 10:20:18;;;;;;;0.00;0.00;;;;;;;23.62;44.90;102490.31;4956629;28;20102;-67
2022/08/07 10:22:43;;;;;;;0.00;0.00;;;;;;;23.66;45.34;102488.09;4955945;28;20118;-67
2022/08/07 10:25:29;;;;;;;0.00;0.00;;;;;;;23.74;45.70;102482.63;4956197;28;20406;-67
2022/08/07 10:28:25;;;;;;;0.00;0.00;;;;;;;23.39;46.07;102486.47;4955486;28;20299;-67
2022/08/07 10:31:09;;;;;;;0.00;0.00;;;;;;;23.49;47.21;102471.59;4952068;28;20031;-67
2022/08/07 10:33:40;;;;;;;0.00;0.00;;;;;;;23.47;44.35;102472.75;4957996;28;20455;-67
2022/08/07 10:36:21;;;;;;;0.00;0.00;;;;;;;23.87;46.15;102473.03;4954616;28;20031;-68
2022/08/07 10:39:17;;;;;;;0.00;0.00;;;;;;;23.18;45.87;102469.38;4958076;28;20042;-67
2022/08/07 10:41:51;;;;;;;0.00;0.00;;;;;;;23.72;43.10;102475.56;4958133;28;20501;-67
2022/08/07 10:44:35;;;;;;;0.00;0.00;;;;;;;23.97;45.86;102438.09;4955808;28;20038;-67
2022/08/07 10:47:10;;;;;;;0.00;0.00;;;;;;;24.74;44.85;102463.50;4958347;28;20114;-68
2022/08/07 10:49:44;;;;;;;0.00;0.00;;;;;;;25.02;41.32;102444.72;4956392;28;20044;-68
2022/08/07 10:52:34;;;;;;;0.00;0.00;;;;;;;25.37;39.79;102460.91;4954917;28;20556;-67
2022/08/07 10:55:14;;;;;;;0.00;0.00;;;;;;;24.87;39.43;102455.59;4957083;28;20465;-67
2022/08/07 10:58:03;;;;;;;0.00;0.00;;;;;;;25.17;38.49;102453.06;4958233;28;20031;-67
2022/08/07 11:00:33;;;;;;;0.00;0.00;;;;;;;25.56;39.11;102451.38;4955612;28;20077;-67
2022/08/07 11:03:04;;;;;;;0.00;0.00;;;;;;;25.96;39.72;102454.91;4955388;28;20042;-67
2022/08/07 11:05:36;;;;;;;0.00;0.00;;;;;;;26.30;38.40;102450.88;4944752;28;20505;-68
2022/08/07 11:08:26;;;;;;;0.00;0.00;;;;;;;26.26;37.64;102448.66;4953832;28;20039;-67
2022/08/07 11:11:08;;;;;;;0.00;0.00;;;;;;;26.68;37.67;102443.63;4956049;28;20612;-68
2022/08/07 11:13:38;;;;;;;0.00;0.00;;;;;;;26.61;37.52;102438.88;4952060;28;20126;-67
2022/08/07 11:16:08;;;;;;;0.00;0.00;;;;;;;27.02;37.05;102436.72;4954042;28;20027;-69
2022/08/07 11:18:53;;;;;;;0.00;0.00;;;;;;;27.48;35.52;102430.97;4957086;28;20031;-70
2022/08/07 11:21:38;;;;;;;0.00;0.00;;;;;;;27.60;33.56;102436.81;4956753;28;20042;-70
2022/08/07 11:24:17;;;;;;;0.00;0.00;;;;;;;27.63;36.62;102435.59;4953158;28;20041;-70
2022/08/07 11:27:08;;;;;;;0.00;0.00;;;;;;;27.50;34.15;102433.53;4953560;28;20045;-70
2022/08/07 11:29:50;;;;;;;0.00;0.00;;;;;;;27.79;37.88;102424.31;4954280;28;20081;-70
2022/08/07 11:32:19;;;;;;;0.00;0.00;;;;;;;27.64;35.50;102429.88;4954433;28;20034;-69
2022/08/07 11:34:51;;;;;;;0.00;0.00;;;;;;;27.66;34.56;102430.53;4954883;28;20065;-70
2022/08/07 11:37:47;;;;;;;0.00;0.00;;;;;;;27.55;33.47;102422.75;4955446;28;20370;-68
2022/08/07 11:40:47;;;;;;;0.00;0.00;;;;;;;27.93;36.27;102414.25;4949386;28;20043;-68
2022/08/07 11:43:24;;;;;;;0.00;0.00;;;;;;;28.21;34.80;102415.34;4953164;28;20708;-67
2022/08/07 11:46:01;;;;;;;0.00;0.00;;;;;;;28.34;32.83;102403.59;4959344;28;20550;-68
2022/08/07 11:48:57;;;;;;;0.00;0.00;;;;;;;28.66;33.40;102398.47;4953700;28;20050;-68